sensor_id;sensor_type;location;lat;lon;timestamp;P1;durP1;ratioP1;P2;durP2;ratioP2
42754;SDS011;28407;51.830;5.684;2022-12-10T00:01:03;26.00;;;15.95;;
42754;SDS011;28407;51.830;5.684;2022-12-10T00:03:05;24.20;;;15.98;;
42754;SDS011;28407;51.830;5.684;2022-12-10T00:05:05;24.45;;;13.68;;
42754;SDS011;28407;51.830;5.684;2022-12-10T00:07:06;23.48;;;14.35;;
42754;SDS011;28407;51.830;5.684;2022-12-10T00:09:08;19.23;;;11.77;;
42754;SDS011;28407;51.830;5.684;2022-12-10T00:11:14;25.92;;;15.05;;
42754;SDS011;28407;51.830;5.684;2022-12-10T00:13:16;29.05;;;16.95;;
42754;SDS011;28407;51.830;5.684;2022-12-10T00:15:17;30.85;;;16.15;;
42754;SDS011;28407;51.830;5.684;2022-12-10T00:17:17;27.88;;;17.17;;
42754;SDS011;28407;51.830;5.684;2022-12-10T00:19:18;25.40;;;16.42;;
42754;SDS011;28407;51.830;5.684;2022-12-10T00:21:20;25.67;;;16.13;;
42754;SDS011;28407;51.830;5.684;2022-12-10T00:23:23;29.30;;;17.27;;
42754;SDS011;28407;51.830;5.684;2022-12-10T00:25:24;23.43;;;16.50;;
42754;SDS011;28407;51.830;5.684;2022-12-10T00:27:24;29.77;;;17.23;;
42754;SDS011;28407;51.830;5.684;2022-12-10T00:29:25;23.50;;;15.32;;
42754;SDS011;28407;51.830;5.684;2022-12-10T00:31:27;26.92;;;15.90;;
42754;SDS011;28407;51.830;5.684;2022-12-10T00:33:29;23.83;;;14.07;;
42754;SDS011;28407;51.830;5.684;2022-12-10T00:35:30;23.83;;;15.10;;
42754;SDS011;28407;51.830;5.684;2022-12-10T00:37:30;28.85;;;14.15;;
42754;SDS011;28407;51.830;5.684;2022-12-10T00:39:33;25.17;;;15.80;;
42754;SDS011;28407;51.830;5.684;2022-12-10T00:41:34;26.10;;;15.75;;
42754;SDS011;28407;51.830;5.684;2022-12-10T00:43:35;18.05;;;12.00;;
42754;SDS011;28407;51.830;5.684;2022-12-10T00:45:35;27.08;;;14.77;;
42754;SDS011;28407;51.830;5.684;2022-12-10T00:47:36;29.35;;;18.23;;
42754;SDS011;28407;51.830;5.684;2022-12-10T00:49:36;26.73;;;15.38;;
42754;SDS011;28407;51.830;5.684;2022-12-10T00:51:37;25.48;;;15.55;;
42754;SDS011;28407;51.830;5.684;2022-12-10T00:53:38;24.50;;;14.95;;
42754;SDS011;28407;51.830;5.684;2022-12-10T00:55:41;28.90;;;19.95;;
42754;SDS011;28407;51.830;5.684;2022-12-10T00:57:42;21.15;;;13.43;;
42754;SDS011;28407;51.830;5.684;2022-12-10T00:59:43;22.40;;;13.57;;
42754;SDS011;28407;51.830;5.684;2022-12-10T01:01:44;27.33;;;17.02;;
42754;SDS011;28407;51.830;5.684;2022-12-10T01:03:45;18.50;;;11.65;;
42754;SDS011;28407;51.830;5.684;2022-12-10T01:05:47;24.98;;;15.98;;
42754;SDS011;28407;51.830;5.684;2022-12-10T01:07:49;24.75;;;17.10;;
42754;SDS011;28407;51.830;5.684;2022-12-10T01:09:52;28.38;;;15.75;;
42754;SDS011;28407;51.830;5.684;2022-12-10T01:11:56;26.60;;;16.60;;
42754;SDS011;28407;51.830;5.684;2022-12-10T01:14:00;28.67;;;17.85;;
42754;SDS011;28407;51.830;5.684;2022-12-10T01:16:02;24.77;;;16.08;;
42754;SDS011;28407;51.830;5.684;2022-12-10T01:18:04;27.65;;;18.55;;
42754;SDS011;28407;51.830;5.684;2022-12-10T01:20:04;27.63;;;16.95;;
42754;SDS011;28407;51.830;5.684;2022-12-10T01:26:10;28.20;;;16.65;;
42754;SDS011;28407;51.830;5.684;2022-12-10T01:28:13;25.88;;;16.98;;
42754;SDS011;28407;51.830;5.684;2022-12-10T01:30:14;24.52;;;16.10;;
42754;SDS011;28407;51.830;5.684;2022-12-10T01:32:15;21.63;;;14.60;;
42754;SDS011;28407;51.830;5.684;2022-12-10T01:34:15;19.33;;;11.70;;
42754;SDS011;28407;51.830;5.684;2022-12-10T01:36:17;28.60;;;16.73;;
42754;SDS011;28407;51.830;5.684;2022-12-10T01:38:22;24.90;;;16.48;;
42754;SDS011;28407;51.830;5.684;2022-12-10T01:40:23;25.98;;;17.45;;
42754;SDS011;28407;51.830;5.684;2022-12-10T01:42:24;28.15;;;17.20;;
42754;SDS011;28407;51.830;5.684;2022-12-10T01:46:27;26.45;;;16.02;;
42754;SDS011;28407;51.830;5.684;2022-12-10T01:48:30;26.35;;;16.38;;
42754;SDS011;28407;51.830;5.684;2022-12-10T01:50:30;21.88;;;12.68;;
42754;SDS011;28407;51.830;5.684;2022-12-10T01:52:31;29.75;;;16.73;;
42754;SDS011;28407;51.830;5.684;2022-12-10T01:54:33;26.80;;;16.27;;
42754;SDS011;28407;51.830;5.684;2022-12-10T01:56:37;26.63;;;14.50;;
42754;SDS011;28407;51.830;5.684;2022-12-10T01:58:40;23.77;;;15.07;;
42754;SDS011;28407;51.830;5.684;2022-12-10T02:00:47;23.55;;;14.07;;
42754;SDS011;28407;51.830;5.684;2022-12-10T02:03:00;26.90;;;17.42;;
42754;SDS011;28407;51.830;5.684;2022-12-10T02:05:12;27.90;;;16.63;;
42754;SDS011;28407;51.830;5.684;2022-12-10T02:12:00;25.98;;;15.50;;
42754;SDS011;28407;51.830;5.684;2022-12-10T02:16:37;25.27;;;15.80;;
42754;SDS011;28407;51.830;5.684;2022-12-10T02:18:48;26.15;;;16.42;;
42754;SDS011;28407;51.830;5.684;2022-12-10T02:20:55;32.28;;;17.15;;
42754;SDS011;28407;51.830;5.684;2022-12-10T02:23:02;27.02;;;17.45;;
42754;SDS011;28407;51.830;5.684;2022-12-10T02:25:05;28.48;;;15.82;;
42754;SDS011;28407;51.830;5.684;2022-12-10T02:27:13;27.83;;;16.00;;
42754;SDS011;28407;51.830;5.684;2022-12-10T02:29:23;24.73;;;14.90;;
42754;SDS011;28407;51.830;5.684;2022-12-10T02:31:26;31.63;;;17.80;;
42754;SDS011;28407;51.830;5.684;2022-12-10T02:33:30;27.17;;;16.75;;
42754;SDS011;28407;51.830;5.684;2022-12-10T02:35:33;32.80;;;18.23;;
42754;SDS011;28407;51.830;5.684;2022-12-10T02:37:39;27.15;;;16.10;;
42754;SDS011;28407;51.830;5.684;2022-12-10T02:39:49;24.88;;;17.02;;
42754;SDS011;28407;51.830;5.684;2022-12-10T02:41:54;28.05;;;17.27;;
42754;SDS011;28407;51.830;5.684;2022-12-10T02:43:56;27.48;;;16.60;;
42754;SDS011;28407;51.830;5.684;2022-12-10T02:45:59;28.90;;;16.08;;
42754;SDS011;28407;51.830;5.684;2022-12-10T02:48:03;28.60;;;15.90;;
42754;SDS011;28407;51.830;5.684;2022-12-10T02:50:12;24.48;;;15.52;;
42754;SDS011;28407;51.830;5.684;2022-12-10T02:52:17;23.70;;;16.35;;
42754;SDS011;28407;51.830;5.684;2022-12-10T02:56:40;29.15;;;16.05;;
42754;SDS011;28407;51.830;5.684;2022-12-10T02:59:33;23.25;;;15.82;;
42754;SDS011;28407;51.830;5.684;2022-12-10T03:03:50;23.50;;;14.68;;
42754;SDS011;28407;51.830;5.684;2022-12-10T03:05:58;28.00;;;16.00;;
42754;SDS011;28407;51.830;5.684;2022-12-10T03:10:35;27.38;;;15.93;;
42754;SDS011;28407;51.830;5.684;2022-12-10T03:12:39;29.45;;;16.70;;
42754;SDS011;28407;51.830;5.684;2022-12-10T03:14:43;27.55;;;16.13;;
42754;SDS011;28407;51.830;5.684;2022-12-10T03:16:46;30.58;;;16.23;;
42754;SDS011;28407;51.830;5.684;2022-12-10T03:18:53;24.75;;;16.40;;
42754;SDS011;28407;51.830;5.684;2022-12-10T03:20:58;26.63;;;15.88;;
42754;SDS011;28407;51.830;5.684;2022-12-10T03:23:02;29.92;;;17.08;;
42754;SDS011;28407;51.830;5.684;2022-12-10T03:25:07;26.10;;;16.95;;
42754;SDS011;28407;51.830;5.684;2022-12-10T03:27:09;28.58;;;16.02;;
42754;SDS011;28407;51.830;5.684;2022-12-10T03:29:15;29.90;;;17.92;;
42754;SDS011;28407;51.830;5.684;2022-12-10T03:31:21;26.23;;;17.45;;
42754;SDS011;28407;51.830;5.684;2022-12-10T03:33:21;27.17;;;17.52;;
42754;SDS011;28407;51.830;5.684;2022-12-10T03:35:23;26.08;;;16.05;;
42754;SDS011;28407;51.830;5.684;2022-12-10T03:37:25;28.20;;;16.83;;
42754;SDS011;28407;51.830;5.684;2022-12-10T03:39:26;22.75;;;15.13;;
42754;SDS011;28407;51.830;5.684;2022-12-10T03:41:28;28.02;;;16.88;;
42754;SDS011;28407;51.830;5.684;2022-12-10T03:43:29;30.35;;;17.75;;
42754;SDS011;28407;51.830;5.684;2022-12-10T03:45:30;30.05;;;17.27;;
42754;SDS011;28407;51.830;5.684;2022-12-10T03:47:30;27.85;;;17.05;;
42754;SDS011;28407;51.830;5.684;2022-12-10T03:49:31;27.15;;;16.27;;
42754;SDS011;28407;51.830;5.684;2022-12-10T03:51:32;26.83;;;17.55;;
42754;SDS011;28407;51.830;5.684;2022-12-10T03:53:32;27.38;;;16.67;;
42754;SDS011;28407;51.830;5.684;2022-12-10T03:55:33;24.77;;;15.30;;
42754;SDS011;28407;51.830;5.684;2022-12-10T03:57:33;27.58;;;17.13;;
42754;SDS011;28407;51.830;5.684;2022-12-10T03:59:34;27.90;;;16.27;;
42754;SDS011;28407;51.830;5.684;2022-12-10T04:01:35;26.90;;;15.15;;
42754;SDS011;28407;51.830;5.684;2022-12-10T04:03:36;27.70;;;16.77;;
42754;SDS011;28407;51.830;5.684;2022-12-10T04:05:38;28.77;;;17.05;;
42754;SDS011;28407;51.830;5.684;2022-12-10T04:07:39;28.73;;;17.55;;
42754;SDS011;28407;51.830;5.684;2022-12-10T04:09:39;27.17;;;17.33;;
42754;SDS011;28407;51.830;5.684;2022-12-10T04:11:40;18.00;;;12.38;;
42754;SDS011;28407;51.830;5.684;2022-12-10T04:13:41;27.30;;;16.83;;
42754;SDS011;28407;51.830;5.684;2022-12-10T04:16:00;30.50;;;18.10;;
42754;SDS011;28407;51.830;5.684;2022-12-10T04:18:19;27.58;;;15.50;;
42754;SDS011;28407;51.830;5.684;2022-12-10T04:20:19;26.98;;;15.85;;
42754;SDS011;28407;51.830;5.684;2022-12-10T04:22:39;24.88;;;15.23;;
42754;SDS011;28407;51.830;5.684;2022-12-10T04:24:58;31.83;;;19.67;;
42754;SDS011;28407;51.830;5.684;2022-12-10T04:27:20;27.42;;;15.38;;
42754;SDS011;28407;51.830;5.684;2022-12-10T04:29:24;32.03;;;18.17;;
42754;SDS011;28407;51.830;5.684;2022-12-10T04:31:26;30.92;;;17.45;;
42754;SDS011;28407;51.830;5.684;2022-12-10T04:33:27;28.15;;;16.50;;
42754;SDS011;28407;51.830;5.684;2022-12-10T04:35:28;29.88;;;18.85;;
42754;SDS011;28407;51.830;5.684;2022-12-10T04:37:28;30.48;;;18.17;;
42754;SDS011;28407;51.830;5.684;2022-12-10T04:39:29;32.83;;;16.90;;
42754;SDS011;28407;51.830;5.684;2022-12-10T04:41:30;30.45;;;17.02;;
42754;SDS011;28407;51.830;5.684;2022-12-10T04:43:30;28.42;;;16.42;;
42754;SDS011;28407;51.830;5.684;2022-12-10T04:45:33;27.25;;;16.35;;
42754;SDS011;28407;51.830;5.684;2022-12-10T04:47:34;33.70;;;17.52;;
42754;SDS011;28407;51.830;5.684;2022-12-10T04:49:35;30.83;;;17.25;;
42754;SDS011;28407;51.830;5.684;2022-12-10T04:51:36;29.55;;;16.08;;
42754;SDS011;28407;51.830;5.684;2022-12-10T04:53:37;32.92;;;17.83;;
42754;SDS011;28407;51.830;5.684;2022-12-10T04:55:39;33.65;;;19.13;;
42754;SDS011;28407;51.830;5.684;2022-12-10T04:57:39;33.85;;;18.15;;
42754;SDS011;28407;51.830;5.684;2022-12-10T04:59:40;30.40;;;16.60;;
42754;SDS011;28407;51.830;5.684;2022-12-10T05:01:41;28.38;;;16.38;;
42754;SDS011;28407;51.830;5.684;2022-12-10T05:03:41;27.50;;;15.38;;
42754;SDS011;28407;51.830;5.684;2022-12-10T05:05:42;21.65;;;13.05;;
42754;SDS011;28407;51.830;5.684;2022-12-10T05:07:42;32.53;;;16.63;;
42754;SDS011;28407;51.830;5.684;2022-12-10T05:09:43;29.02;;;16.73;;
42754;SDS011;28407;51.830;5.684;2022-12-10T05:11:44;28.33;;;15.70;;
42754;SDS011;28407;51.830;5.684;2022-12-10T05:13:44;27.77;;;16.35;;
42754;SDS011;28407;51.830;5.684;2022-12-10T05:15:45;30.33;;;17.15;;
42754;SDS011;28407;51.830;5.684;2022-12-10T05:17:46;26.95;;;15.15;;
42754;SDS011;28407;51.830;5.684;2022-12-10T05:19:46;32.70;;;17.05;;
42754;SDS011;28407;51.830;5.684;2022-12-10T05:21:47;24.50;;;16.23;;
42754;SDS011;28407;51.830;5.684;2022-12-10T05:24:07;25.08;;;15.02;;
42754;SDS011;28407;51.830;5.684;2022-12-10T05:26:11;30.90;;;18.08;;
42754;SDS011;28407;51.830;5.684;2022-12-10T05:28:17;32.13;;;17.40;;
42754;SDS011;28407;51.830;5.684;2022-12-10T05:30:17;25.27;;;14.98;;
42754;SDS011;28407;51.830;5.684;2022-12-10T05:32:18;31.98;;;15.18;;
42754;SDS011;28407;51.830;5.684;2022-12-10T05:34:19;31.17;;;16.25;;
42754;SDS011;28407;51.830;5.684;2022-12-10T05:36:21;32.53;;;17.77;;
42754;SDS011;28407;51.830;5.684;2022-12-10T05:38:23;30.88;;;16.67;;
42754;SDS011;28407;51.830;5.684;2022-12-10T05:40:25;33.40;;;17.50;;
42754;SDS011;28407;51.830;5.684;2022-12-10T05:42:25;32.00;;;17.42;;
42754;SDS011;28407;51.830;5.684;2022-12-10T05:44:26;35.20;;;20.48;;
42754;SDS011;28407;51.830;5.684;2022-12-10T05:46:27;29.90;;;16.33;;
42754;SDS011;28407;51.830;5.684;2022-12-10T05:48:30;36.72;;;21.58;;
42754;SDS011;28407;51.830;5.684;2022-12-10T05:52:32;38.00;;;18.15;;
42754;SDS011;28407;51.830;5.684;2022-12-10T05:54:33;31.02;;;16.70;;
42754;SDS011;28407;51.830;5.684;2022-12-10T05:56:35;33.75;;;16.75;;
42754;SDS011;28407;51.830;5.684;2022-12-10T05:58:36;31.63;;;14.40;;
42754;SDS011;28407;51.830;5.684;2022-12-10T06:00:40;26.35;;;14.18;;
42754;SDS011;28407;51.830;5.684;2022-12-10T06:02:41;28.98;;;14.00;;
42754;SDS011;28407;51.830;5.684;2022-12-10T06:04:42;30.70;;;16.63;;
42754;SDS011;28407;51.830;5.684;2022-12-10T06:06:42;29.45;;;16.75;;
42754;SDS011;28407;51.830;5.684;2022-12-10T06:08:44;30.23;;;16.38;;
42754;SDS011;28407;51.830;5.684;2022-12-10T06:10:44;30.75;;;16.67;;
42754;SDS011;28407;51.830;5.684;2022-12-10T06:12:45;35.28;;;19.70;;
42754;SDS011;28407;51.830;5.684;2022-12-10T06:14:46;28.23;;;14.73;;
42754;SDS011;28407;51.830;5.684;2022-12-10T06:16:47;27.92;;;16.50;;
42754;SDS011;28407;51.830;5.684;2022-12-10T06:18:48;35.75;;;19.17;;
42754;SDS011;28407;51.830;5.684;2022-12-10T06:20:50;32.67;;;17.63;;
42754;SDS011;28407;51.830;5.684;2022-12-10T06:22:50;28.33;;;15.68;;
42754;SDS011;28407;51.830;5.684;2022-12-10T06:24:51;29.23;;;14.80;;
42754;SDS011;28407;51.830;5.684;2022-12-10T06:26:53;29.55;;;15.68;;
42754;SDS011;28407;51.830;5.684;2022-12-10T06:28:54;34.15;;;16.05;;
42754;SDS011;28407;51.830;5.684;2022-12-10T06:30:57;34.00;;;17.10;;
42754;SDS011;28407;51.830;5.684;2022-12-10T06:32:58;31.58;;;16.35;;
42754;SDS011;28407;51.830;5.684;2022-12-10T06:34:59;32.20;;;17.05;;
42754;SDS011;28407;51.830;5.684;2022-12-10T06:37:00;34.70;;;17.73;;
42754;SDS011;28407;51.830;5.684;2022-12-10T06:39:01;35.78;;;19.75;;
42754;SDS011;28407;51.830;5.684;2022-12-10T06:41:06;32.80;;;18.20;;
42754;SDS011;28407;51.830;5.684;2022-12-10T06:43:09;33.45;;;17.35;;
42754;SDS011;28407;51.830;5.684;2022-12-10T06:45:09;28.98;;;15.50;;
42754;SDS011;28407;51.830;5.684;2022-12-10T06:47:10;32.22;;;16.92;;
42754;SDS011;28407;51.830;5.684;2022-12-10T06:49:11;28.33;;;15.50;;
42754;SDS011;28407;51.830;5.684;2022-12-10T06:51:12;28.98;;;15.23;;
42754;SDS011;28407;51.830;5.684;2022-12-10T06:53:13;30.70;;;14.55;;
42754;SDS011;28407;51.830;5.684;2022-12-10T06:55:13;26.25;;;16.48;;
42754;SDS011;28407;51.830;5.684;2022-12-10T06:57:14;32.45;;;16.02;;
42754;SDS011;28407;51.830;5.684;2022-12-10T06:59:15;30.58;;;16.52;;
42754;SDS011;28407;51.830;5.684;2022-12-10T07:01:19;29.67;;;16.25;;
42754;SDS011;28407;51.830;5.684;2022-12-10T07:03:22;32.22;;;15.65;;
42754;SDS011;28407;51.830;5.684;2022-12-10T07:05:22;30.40;;;14.70;;
42754;SDS011;28407;51.830;5.684;2022-12-10T07:07:23;28.15;;;15.73;;
42754;SDS011;28407;51.830;5.684;2022-12-10T07:09:23;26.40;;;14.05;;
42754;SDS011;28407;51.830;5.684;2022-12-10T07:11:25;33.10;;;16.65;;
42754;SDS011;28407;51.830;5.684;2022-12-10T07:13:25;23.80;;;13.57;;
42754;SDS011;28407;51.830;5.684;2022-12-10T07:15:26;35.92;;;17.95;;
42754;SDS011;28407;51.830;5.684;2022-12-10T07:17:28;34.58;;;18.27;;
42754;SDS011;28407;51.830;5.684;2022-12-10T07:19:28;42.50;;;20.80;;
42754;SDS011;28407;51.830;5.684;2022-12-10T07:21:33;28.08;;;14.27;;
42754;SDS011;28407;51.830;5.684;2022-12-10T07:23:35;27.15;;;15.27;;
42754;SDS011;28407;51.830;5.684;2022-12-10T07:25:35;27.08;;;14.60;;
42754;SDS011;28407;51.830;5.684;2022-12-10T07:27:36;27.70;;;14.77;;
42754;SDS011;28407;51.830;5.684;2022-12-10T07:29:37;24.80;;;14.50;;
42754;SDS011;28407;51.830;5.684;2022-12-10T07:31:38;25.67;;;13.18;;
42754;SDS011;28407;51.830;5.684;2022-12-10T07:33:38;29.02;;;14.85;;
42754;SDS011;28407;51.830;5.684;2022-12-10T07:35:39;21.52;;;12.57;;
42754;SDS011;28407;51.830;5.684;2022-12-10T07:37:39;22.83;;;12.45;;
42754;SDS011;28407;51.830;5.684;2022-12-10T07:39:40;19.15;;;10.93;;
42754;SDS011;28407;51.830;5.684;2022-12-10T07:41:43;24.67;;;12.38;;
42754;SDS011;28407;51.830;5.684;2022-12-10T07:43:52;28.85;;;13.45;;
42754;SDS011;28407;51.830;5.684;2022-12-10T07:45:53;23.25;;;13.00;;
42754;SDS011;28407;51.830;5.684;2022-12-10T07:47:55;29.08;;;14.13;;
42754;SDS011;28407;51.830;5.684;2022-12-10T07:49:55;24.98;;;14.63;;
42754;SDS011;28407;51.830;5.684;2022-12-10T07:51:56;26.80;;;13.75;;
42754;SDS011;28407;51.830;5.684;2022-12-10T07:53:56;17.48;;;9.40;;
42754;SDS011;28407;51.830;5.684;2022-12-10T07:55:57;22.92;;;12.50;;
42754;SDS011;28407;51.830;5.684;2022-12-10T07:57:58;21.60;;;12.47;;
42754;SDS011;28407;51.830;5.684;2022-12-10T07:59:59;23.13;;;13.05;;
42754;SDS011;28407;51.830;5.684;2022-12-10T08:01:59;23.77;;;13.23;;
42754;SDS011;28407;51.830;5.684;2022-12-10T08:04:00;24.02;;;13.73;;
42754;SDS011;28407;51.830;5.684;2022-12-10T08:06:04;26.30;;;13.85;;
42754;SDS011;28407;51.830;5.684;2022-12-10T08:08:10;23.83;;;12.65;;
42754;SDS011;28407;51.830;5.684;2022-12-10T08:10:10;26.67;;;14.15;;
42754;SDS011;28407;51.830;5.684;2022-12-10T08:12:11;24.67;;;14.20;;
42754;SDS011;28407;51.830;5.684;2022-12-10T08:14:11;16.77;;;10.27;;
42754;SDS011;28407;51.830;5.684;2022-12-10T08:16:13;23.15;;;11.27;;
42754;SDS011;28407;51.830;5.684;2022-12-10T08:18:16;29.63;;;14.25;;
42754;SDS011;28407;51.830;5.684;2022-12-10T08:20:17;21.73;;;11.90;;
42754;SDS011;28407;51.830;5.684;2022-12-10T08:22:17;28.08;;;13.20;;
42754;SDS011;28407;51.830;5.684;2022-12-10T08:24:18;24.30;;;11.63;;
42754;SDS011;28407;51.830;5.684;2022-12-10T08:26:20;26.92;;;14.10;;
42754;SDS011;28407;51.830;5.684;2022-12-10T08:28:22;27.65;;;13.65;;
42754;SDS011;28407;51.830;5.684;2022-12-10T08:30:23;28.80;;;15.25;;
42754;SDS011;28407;51.830;5.684;2022-12-10T08:32:23;29.33;;;13.27;;
42754;SDS011;28407;51.830;5.684;2022-12-10T08:34:24;19.52;;;10.52;;
42754;SDS011;28407;51.830;5.684;2022-12-10T08:36:24;20.75;;;10.68;;
42754;SDS011;28407;51.830;5.684;2022-12-10T08:38:25;21.15;;;11.43;;
42754;SDS011;28407;51.830;5.684;2022-12-10T08:40:26;22.77;;;12.70;;
42754;SDS011;28407;51.830;5.684;2022-12-10T08:42:27;21.05;;;11.13;;
42754;SDS011;28407;51.830;5.684;2022-12-10T08:44:28;25.52;;;13.27;;
42754;SDS011;28407;51.830;5.684;2022-12-10T08:46:28;30.48;;;14.20;;
42754;SDS011;28407;51.830;5.684;2022-12-10T08:48:29;26.00;;;12.27;;
42754;SDS011;28407;51.830;5.684;2022-12-10T08:50:30;25.75;;;15.02;;
42754;SDS011;28407;51.830;5.684;2022-12-10T08:52:30;23.45;;;14.30;;
42754;SDS011;28407;51.830;5.684;2022-12-10T08:54:31;23.80;;;13.30;;
42754;SDS011;28407;51.830;5.684;2022-12-10T08:56:32;30.90;;;14.82;;
42754;SDS011;28407;51.830;5.684;2022-12-10T08:58:32;28.88;;;13.63;;
42754;SDS011;28407;51.830;5.684;2022-12-10T09:00:34;23.05;;;12.90;;
42754;SDS011;28407;51.830;5.684;2022-12-10T09:04:36;25.05;;;12.65;;
42754;SDS011;28407;51.830;5.684;2022-12-10T09:06:37;17.63;;;9.88;;
42754;SDS011;28407;51.830;5.684;2022-12-10T09:08:37;26.48;;;14.77;;
42754;SDS011;28407;51.830;5.684;2022-12-10T09:10:39;23.38;;;14.23;;
42754;SDS011;28407;51.830;5.684;2022-12-10T09:12:40;25.38;;;13.95;;
42754;SDS011;28407;51.830;5.684;2022-12-10T09:14:41;22.63;;;11.98;;
42754;SDS011;28407;51.830;5.684;2022-12-10T09:16:45;28.35;;;15.95;;
42754;SDS011;28407;51.830;5.684;2022-12-10T09:18:45;32.67;;;15.48;;
42754;SDS011;28407;51.830;5.684;2022-12-10T09:20:47;23.17;;;13.05;;
42754;SDS011;28407;51.830;5.684;2022-12-10T09:22:48;15.65;;;8.70;;
42754;SDS011;28407;51.830;5.684;2022-12-10T09:24:48;21.48;;;12.27;;
42754;SDS011;28407;51.830;5.684;2022-12-10T09:26:49;21.30;;;12.65;;
42754;SDS011;28407;51.830;5.684;2022-12-10T09:28:50;23.30;;;12.57;;
42754;SDS011;28407;51.830;5.684;2022-12-10T09:31:00;26.50;;;12.88;;
42754;SDS011;28407;51.830;5.684;2022-12-10T09:33:01;20.77;;;11.10;;
42754;SDS011;28407;51.830;5.684;2022-12-10T09:35:02;21.55;;;12.18;;
42754;SDS011;28407;51.830;5.684;2022-12-10T09:37:03;25.38;;;13.35;;
42754;SDS011;28407;51.830;5.684;2022-12-10T09:39:04;22.30;;;11.85;;
42754;SDS011;28407;51.830;5.684;2022-12-10T09:48:32;25.83;;;11.65;;
42754;SDS011;28407;51.830;5.684;2022-12-10T09:50:53;18.83;;;10.20;;
42754;SDS011;28407;51.830;5.684;2022-12-10T09:53:00;17.33;;;10.45;;
42754;SDS011;28407;51.830;5.684;2022-12-10T09:55:04;22.10;;;11.40;;
42754;SDS011;28407;51.830;5.684;2022-12-10T09:57:18;22.63;;;11.10;;
42754;SDS011;28407;51.830;5.684;2022-12-10T09:59:30;21.92;;;11.85;;
42754;SDS011;28407;51.830;5.684;2022-12-10T10:01:39;21.88;;;10.88;;
42754;SDS011;28407;51.830;5.684;2022-12-10T10:03:40;22.85;;;13.07;;
42754;SDS011;28407;51.830;5.684;2022-12-10T10:05:44;20.33;;;10.93;;
42754;SDS011;28407;51.830;5.684;2022-12-10T10:07:49;24.45;;;14.27;;
42754;SDS011;28407;51.830;5.684;2022-12-10T10:09:55;23.20;;;13.18;;
42754;SDS011;28407;51.830;5.684;2022-12-10T10:11:57;24.58;;;13.00;;
42754;SDS011;28407;51.830;5.684;2022-12-10T10:14:00;25.08;;;12.23;;
42754;SDS011;28407;51.830;5.684;2022-12-10T10:16:22;25.77;;;14.55;;
42754;SDS011;28407;51.830;5.684;2022-12-10T10:18:35;19.85;;;10.18;;
42754;SDS011;28407;51.830;5.684;2022-12-10T10:20:39;26.10;;;14.32;;
42754;SDS011;28407;51.830;5.684;2022-12-10T10:22:40;21.67;;;12.25;;
42754;SDS011;28407;51.830;5.684;2022-12-10T10:24:42;21.00;;;10.75;;
42754;SDS011;28407;51.830;5.684;2022-12-10T10:26:45;27.27;;;10.93;;
42754;SDS011;28407;51.830;5.684;2022-12-10T10:28:46;16.02;;;9.10;;
42754;SDS011;28407;51.830;5.684;2022-12-10T10:30:49;21.58;;;12.40;;
42754;SDS011;28407;51.830;5.684;2022-12-10T10:32:53;29.35;;;14.15;;
42754;SDS011;28407;51.830;5.684;2022-12-10T10:34:57;24.63;;;12.32;;
42754;SDS011;28407;51.830;5.684;2022-12-10T10:36:59;27.80;;;14.73;;
42754;SDS011;28407;51.830;5.684;2022-12-10T10:39:24;27.30;;;12.43;;
42754;SDS011;28407;51.830;5.684;2022-12-10T10:41:28;24.45;;;12.65;;
42754;SDS011;28407;51.830;5.684;2022-12-10T10:43:41;22.48;;;13.48;;
42754;SDS011;28407;51.830;5.684;2022-12-10T10:45:54;25.83;;;13.25;;
42754;SDS011;28407;51.830;5.684;2022-12-10T10:48:05;21.30;;;11.45;;
42754;SDS011;28407;51.830;5.684;2022-12-10T10:50:12;24.00;;;12.60;;
42754;SDS011;28407;51.830;5.684;2022-12-10T10:52:29;23.20;;;11.55;;
42754;SDS011;28407;51.830;5.684;2022-12-10T10:56:40;26.10;;;14.60;;
42754;SDS011;28407;51.830;5.684;2022-12-10T10:58:47;28.30;;;14.45;;
42754;SDS011;28407;51.830;5.684;2022-12-10T11:01:01;28.75;;;14.15;;
42754;SDS011;28407;51.830;5.684;2022-12-10T11:03:05;29.85;;;14.77;;
42754;SDS011;28407;51.830;5.684;2022-12-10T11:05:20;28.83;;;15.50;;
42754;SDS011;28407;51.830;5.684;2022-12-10T11:07:35;32.28;;;17.13;;
42754;SDS011;28407;51.830;5.684;2022-12-10T11:09:38;26.20;;;12.80;;
42754;SDS011;28407;51.830;5.684;2022-12-10T11:11:41;29.45;;;13.38;;
42754;SDS011;28407;51.830;5.684;2022-12-10T11:13:42;24.70;;;13.88;;
42754;SDS011;28407;51.830;5.684;2022-12-10T11:15:43;23.95;;;12.32;;
42754;SDS011;28407;51.830;5.684;2022-12-10T11:17:48;26.88;;;15.13;;
42754;SDS011;28407;51.830;5.684;2022-12-10T11:19:54;23.13;;;13.50;;
42754;SDS011;28407;51.830;5.684;2022-12-10T11:22:15;18.75;;;10.63;;
42754;SDS011;28407;51.830;5.684;2022-12-10T11:24:18;23.08;;;13.13;;
42754;SDS011;28407;51.830;5.684;2022-12-10T11:28:56;20.52;;;10.60;;
42754;SDS011;28407;51.830;5.684;2022-12-10T11:31:08;19.50;;;11.35;;
42754;SDS011;28407;51.830;5.684;2022-12-10T11:33:35;29.10;;;13.75;;
42754;SDS011;28407;51.830;5.684;2022-12-10T11:36:05;22.55;;;11.82;;
42754;SDS011;28407;51.830;5.684;2022-12-10T11:38:49;20.17;;;12.18;;
42754;SDS011;28407;51.830;5.684;2022-12-10T11:43:37;20.33;;;10.95;;
42754;SDS011;28407;51.830;5.684;2022-12-10T11:48:04;25.08;;;11.90;;
42754;SDS011;28407;51.830;5.684;2022-12-10T11:59:40;24.00;;;13.70;;
42754;SDS011;28407;51.830;5.684;2022-12-10T12:06:27;29.50;;;14.27;;
42754;SDS011;28407;51.830;5.684;2022-12-10T12:11:11;28.95;;;13.23;;
42754;SDS011;28407;51.830;5.684;2022-12-10T12:13:33;28.40;;;14.88;;
42754;SDS011;28407;51.830;5.684;2022-12-10T12:17:48;28.52;;;12.27;;
42754;SDS011;28407;51.830;5.684;2022-12-10T12:22:25;29.42;;;13.60;;
42754;SDS011;28407;51.830;5.684;2022-12-10T12:24:35;24.75;;;13.25;;
42754;SDS011;28407;51.830;5.684;2022-12-10T12:26:39;22.13;;;11.73;;
42754;SDS011;28407;51.830;5.684;2022-12-10T12:31:18;31.70;;;14.98;;
42754;SDS011;28407;51.830;5.684;2022-12-10T12:33:26;23.60;;;12.70;;
42754;SDS011;28407;51.830;5.684;2022-12-10T12:37:53;25.73;;;13.55;;
42754;SDS011;28407;51.830;5.684;2022-12-10T12:39:59;30.95;;;14.82;;
42754;SDS011;28407;51.830;5.684;2022-12-10T12:42:38;22.85;;;13.52;;
42754;SDS011;28407;51.830;5.684;2022-12-10T12:45:03;21.08;;;11.82;;
42754;SDS011;28407;51.830;5.684;2022-12-10T12:47:16;21.77;;;12.27;;
42754;SDS011;28407;51.830;5.684;2022-12-10T12:49:33;21.52;;;12.63;;
42754;SDS011;28407;51.830;5.684;2022-12-10T12:51:48;19.23;;;11.25;;
42754;SDS011;28407;51.830;5.684;2022-12-10T12:54:00;21.75;;;11.27;;
42754;SDS011;28407;51.830;5.684;2022-12-10T13:03:33;18.30;;;11.30;;
42754;SDS011;28407;51.830;5.684;2022-12-10T13:05:41;15.75;;;9.00;;
42754;SDS011;28407;51.830;5.684;2022-12-10T13:07:42;20.40;;;10.93;;
42754;SDS011;28407;51.830;5.684;2022-12-10T13:09:47;18.17;;;12.93;;
42754;SDS011;28407;51.830;5.684;2022-12-10T13:18:39;25.15;;;13.25;;
42754;SDS011;28407;51.830;5.684;2022-12-10T13:21:15;22.38;;;10.45;;
42754;SDS011;28407;51.830;5.684;2022-12-10T13:23:30;21.38;;;9.80;;
42754;SDS011;28407;51.830;5.684;2022-12-10T13:27:56;23.17;;;10.55;;
42754;SDS011;28407;51.830;5.684;2022-12-10T13:30:25;15.85;;;8.70;;